createdAt,value
2022-10-22T00:03:14.823Z,71.30
2022-10-22T00:08:16.604Z,71.71
2022-10-22T00:13:19.394Z,71.52
2022-10-22T00:18:21.207Z,71.29
2022-10-22T00:23:23.004Z,71.06
2022-10-22T00:28:27.996Z,71.66
2022-10-22T00:33:30.646Z,71.86
2022-10-22T00:38:33.558Z,72.15
2022-10-22T00:43:54.985Z,71.72
2022-10-22T00:49:00.545Z,71.60
2022-10-22T00:54:08.086Z,71.53
2022-10-22T00:59:12.590Z,71.43
2022-10-22T01:04:14.436Z,71.84
2022-10-22T01:09:22.096Z,72.13
2022-10-22T01:14:52.024Z,71.89
2022-10-22T01:19:53.706Z,71.91
2022-10-22T01:25:16.613Z,71.69
2022-10-22T01:30:19.274Z,72.13
2022-10-22T01:35:27.517Z,72.62
2022-10-22T01:40:30.546Z,72.82
2022-10-22T01:45:36.577Z,72.99
2022-10-22T01:50:57.999Z,73.02
2022-10-22T01:56:15.299Z,73.34
2022-10-22T02:01:19.970Z,74.29
2022-10-22T02:06:24.700Z,74.38
2022-10-22T02:11:27.086Z,73.90
2022-10-22T02:16:43.649Z,74.19
2022-10-22T02:21:46.062Z,74.14
2022-10-22T02:27:11.840Z,74.04
2022-10-22T02:32:19.184Z,73.79
2022-10-22T02:37:22.210Z,73.75
2022-10-22T02:42:26.518Z,73.90
2022-10-22T02:47:28.306Z,74.27
2022-10-22T02:52:30.128Z,74.53
2022-10-22T02:57:32.340Z,74.29
2022-10-22T03:02:34.451Z,74.69
2022-10-22T03:07:36.296Z,74.58
2022-10-22T03:12:39.325Z,74.17
2022-10-22T03:17:41.347Z,74.02
2022-10-22T03:22:44.868Z,74.19
2022-10-22T03:27:47.816Z,73.68
2022-10-22T03:32:49.656Z,73.10
2022-10-22T03:37:51.836Z,73.29
2022-10-22T03:42:53.726Z,73.38
2022-10-22T03:47:55.566Z,73.43
2022-10-22T03:52:58.387Z,73.38
2022-10-22T03:58:00.140Z,73.80
2022-10-22T04:03:01.923Z,73.53
2022-10-22T04:08:03.869Z,73.16
2022-10-22T04:13:05.641Z,72.92
2022-10-22T04:18:07.490Z,73.02
2022-10-22T04:23:09.260Z,72.74
2022-10-22T04:28:11.069Z,72.96
2022-10-22T04:33:12.829Z,72.52
2022-10-22T04:38:15.231Z,72.68
2022-10-22T04:43:16.955Z,72.57
2022-10-22T04:48:18.714Z,72.23
2022-10-22T04:53:20.485Z,72.22
2022-10-22T04:58:22.351Z,72.11
2022-10-22T05:03:25.731Z,72.21
2022-10-22T05:08:27.473Z,72.40
2022-10-22T05:13:29.891Z,72.55
2022-10-22T05:18:34.822Z,72.18
2022-10-22T05:23:36.698Z,72.61
2022-10-22T05:28:39.202Z,72.51
2022-10-22T05:33:42.380Z,72.15
2022-10-22T05:38:44.613Z,72.33
2022-10-22T05:43:46.402Z,72.48
2022-10-22T05:49:07.933Z,71.91
2022-10-22T05:54:15.803Z,72.77
2022-10-22T05:59:17.750Z,72.65
2022-10-22T06:04:19.640Z,72.81
2022-10-22T06:09:31.022Z,72.81
2022-10-22T06:14:32.965Z,73.18
2022-10-22T06:19:34.802Z,73.72
2022-10-22T06:24:37.878Z,73.69
2022-10-22T06:29:40.362Z,73.48
2022-10-22T06:34:42.205Z,73.14
2022-10-22T06:39:44.254Z,72.34
2022-10-22T06:44:46.033Z,72.63
2022-10-22T06:49:49.304Z,72.20
2022-10-22T06:54:51.122Z,72.03
2022-10-22T06:59:52.943Z,72.05
2022-10-22T07:04:54.806Z,72.08
2022-10-22T07:09:57.038Z,72.01
2022-10-22T07:14:58.793Z,72.02
2022-10-22T07:20:00.668Z,71.76
2022-10-22T07:25:07.385Z,72.25
2022-10-22T07:30:09.879Z,71.91
2022-10-22T07:35:11.791Z,72.08
2022-10-22T07:40:13.638Z,72.30
2022-10-22T07:45:15.440Z,71.72
2022-10-22T07:50:18.400Z,71.40
2022-10-22T07:55:20.415Z,71.36
2022-10-22T08:00:25.191Z,71.29
2022-10-22T08:05:27.377Z,71.10
2022-10-22T08:10:29.208Z,71.62
2022-10-22T08:15:31.351Z,70.26
2022-10-22T08:20:33.217Z,69.45
2022-10-22T08:25:35.107Z,68.90
2022-10-22T08:30:38.899Z,68.93
2022-10-22T08:35:40.861Z,68.04
2022-10-22T08:40:44.616Z,66.53
2022-10-22T08:46:33.928Z,64.87
2022-10-22T08:51:40.661Z,65.11
2022-10-22T08:56:50.857Z,63.71
2022-10-22T09:01:54.148Z,63.99
2022-10-22T09:06:58.627Z,63.33
2022-10-22T09:12:01.357Z,60.96
2022-10-22T09:17:14.838Z,61.08
2022-10-22T09:22:39.581Z,61.06
2022-10-22T09:27:42.011Z,60.71
2022-10-22T09:32:44.254Z,60.35
2022-10-22T09:37:54.702Z,60.13
2022-10-22T09:42:56.591Z,61.10
2022-10-22T09:48:35.564Z,59.25
2022-10-22T09:53:42.118Z,60.86
2022-10-22T09:58:51.354Z,60.61
2022-10-22T10:03:53.775Z,60.73
2022-10-22T10:08:55.757Z,60.76
2022-10-22T10:14:26.743Z,59.45
2022-10-22T10:19:31.684Z,58.53
2022-10-22T10:24:39.576Z,59.24
2022-10-22T10:30:03.287Z,57.49
2022-10-22T10:35:18.682Z,57.21
2022-10-22T10:40:27.232Z,56.88
2022-10-22T10:46:04.467Z,56.44
2022-10-22T10:51:43.697Z,55.76
2022-10-22T10:56:50.973Z,56.13
2022-10-22T11:02:03.753Z,55.13
2022-10-22T11:07:22.777Z,55.17
2022-10-22T11:12:34.754Z,54.03
2022-10-22T11:17:41.703Z,54.98
2022-10-22T11:23:17.706Z,54.67
2022-10-22T11:28:32.043Z,54.33
2022-10-22T11:33:54.572Z,55.61
2022-10-22T11:39:04.450Z,55.39
2022-10-22T11:44:22.053Z,56.15
2022-10-22T11:49:42.063Z,56.48
2022-10-22T11:54:45.195Z,56.08
2022-10-22T11:59:46.931Z,56.38
2022-10-22T12:04:48.878Z,56.62
2022-10-22T12:14:59.780Z,56.04
2022-10-22T12:20:13.222Z,55.20
2022-10-22T12:25:22.412Z,54.70
2022-10-22T12:30:27.433Z,54.61
2022-10-22T12:35:31.952Z,54.32
2022-10-22T12:40:35.854Z,54.36
2022-10-22T12:45:38.550Z,53.71
2022-10-22T12:50:47.240Z,53.35
2022-10-22T12:55:52.615Z,52.29
2022-10-22T13:01:02.289Z,52.33
2022-10-22T13:06:19.145Z,52.72
2022-10-22T13:11:21.533Z,53.02
2022-10-22T13:16:27.873Z,52.39
2022-10-22T13:21:37.557Z,52.71
2022-10-22T13:26:39.423Z,53.20
2022-10-22T13:31:48.165Z,52.24
2022-10-22T13:36:50.646Z,53.70
2022-10-22T13:41:52.572Z,53.10
2022-10-22T13:46:56.364Z,53.18
2022-10-22T13:51:59.331Z,53.45
2022-10-22T13:57:01.144Z,53.12
2022-10-22T14:02:06.587Z,52.57
2022-10-22T14:07:14.303Z,52.30
2022-10-22T14:12:17.423Z,52.88
2022-10-22T14:17:19.473Z,53.11
2022-10-22T14:22:23.295Z,52.61
2022-10-22T14:27:25.165Z,52.27
2022-10-22T14:32:28.674Z,52.52
2022-10-22T14:37:30.836Z,52.68
2022-10-22T14:42:38.964Z,53.62
2022-10-22T14:47:40.924Z,53.34
2022-10-22T14:52:43.866Z,54.85
2022-10-22T14:57:46.580Z,54.30
2022-10-22T15:02:48.851Z,54.08
2022-10-22T15:07:50.784Z,54.69
2022-10-22T15:12:52.600Z,54.87
2022-10-22T15:17:54.382Z,55.04
2022-10-22T15:22:56.569Z,55.04
2022-10-22T15:28:00.817Z,55.49
2022-10-22T15:33:09.553Z,56.21
2022-10-22T15:38:11.389Z,55.88
2022-10-22T15:43:13.735Z,56.75
2022-10-22T15:48:15.598Z,58.03
2022-10-22T15:53:17.551Z,58.52
2022-10-22T15:58:19.441Z,59.02
2022-10-22T16:03:21.330Z,59.60
2022-10-22T16:08:23.462Z,59.81
2022-10-22T16:13:26.266Z,61.06
2022-10-22T16:18:28.191Z,62.12
2022-10-22T16:23:30.169Z,61.97
2022-10-22T16:28:31.999Z,62.65
2022-10-22T16:33:41.404Z,63.60
2022-10-22T16:38:49.692Z,64.31
2022-10-22T16:43:55.505Z,64.45
2022-10-22T16:48:57.540Z,65.01
2022-10-22T16:53:59.386Z,64.78
2022-10-22T16:59:01.278Z,64.93
2022-10-22T17:04:03.166Z,65.83
2022-10-22T17:09:05.117Z,65.71
2022-10-22T17:14:07.146Z,66.42
2022-10-22T17:19:14.367Z,66.50
2022-10-22T17:24:16.215Z,66.54
2022-10-22T17:29:18.236Z,67.03
2022-10-22T17:34:20.217Z,67.18
2022-10-22T17:39:22.136Z,67.19
2022-10-22T17:44:23.916Z,67.31
2022-10-22T17:49:25.776Z,67.37
2022-10-22T17:54:27.643Z,67.43
2022-10-22T17:59:29.646Z,67.77
2022-10-22T18:04:32.806Z,67.85
2022-10-22T18:09:34.874Z,67.71
2022-10-22T18:14:36.699Z,67.86
2022-10-22T18:19:38.491Z,67.91
2022-10-22T18:24:40.353Z,68.13
2022-10-22T18:29:42.074Z,68.26
2022-10-22T18:34:43.954Z,68.19
2022-10-22T18:39:45.734Z,68.77
2022-10-22T18:44:47.601Z,68.78
2022-10-22T18:49:51.733Z,68.94
2022-10-22T18:54:53.564Z,68.87
2022-10-22T18:59:58.571Z,68.78
2022-10-22T19:05:01.483Z,68.56
2022-10-22T19:10:04.123Z,68.76
2022-10-22T19:15:06.623Z,68.44
2022-10-22T19:20:08.994Z,68.90
2022-10-22T19:25:12.055Z,68.96
2022-10-22T19:30:14.293Z,69.07
2022-10-22T19:35:16.856Z,69.33
2022-10-22T19:40:18.798Z,69.43
2022-10-22T19:45:20.919Z,69.97
2022-10-22T19:50:24.501Z,69.38
2022-10-22T19:55:26.973Z,69.50
2022-10-22T20:00:29.636Z,69.22
2022-10-22T20:05:31.565Z,69.76
2022-10-22T20:10:33.633Z,69.82
2022-10-22T20:15:35.583Z,69.52
2022-10-22T20:20:38.391Z,69.56
2022-10-22T20:25:45.813Z,68.80
2022-10-22T20:30:47.596Z,69.02
2022-10-22T20:36:04.563Z,69.48
2022-10-22T20:41:09.132Z,69.08
2022-10-22T20:46:27.343Z,69.05
2022-10-22T20:51:29.552Z,68.82
2022-10-22T20:56:32.562Z,68.47
2022-10-22T21:01:55.464Z,68.67
2022-10-22T21:06:58.066Z,68.99
2022-10-22T21:12:03.325Z,69.03
2022-10-22T21:17:05.269Z,69.08
2022-10-22T21:22:07.573Z,69.10
2022-10-22T21:27:09.513Z,69.16
2022-10-22T21:32:12.212Z,69.06
2022-10-22T21:37:14.043Z,69.03
2022-10-22T21:42:16.213Z,69.31
2022-10-22T21:47:18.032Z,69.18
2022-10-22T21:52:19.903Z,69.02
2022-10-22T21:57:21.805Z,68.87
2022-10-22T22:02:24.201Z,69.07
2022-10-22T22:07:26.063Z,69.35
2022-10-22T22:12:27.933Z,69.22
2022-10-22T22:17:29.711Z,69.37
2022-10-22T22:22:31.631Z,69.17
2022-10-22T22:27:34.649Z,69.18
2022-10-22T22:32:36.564Z,69.34
2022-10-22T22:37:38.585Z,69.62
2022-10-22T22:42:40.637Z,69.67
2022-10-22T22:47:42.595Z,69.35
2022-10-22T22:52:44.658Z,69.69
2022-10-22T22:57:46.493Z,69.80
2022-10-22T23:02:48.305Z,69.64
2022-10-22T23:07:50.137Z,69.67
2022-10-22T23:12:51.949Z,69.80
2022-10-22T23:17:53.726Z,69.83
2022-10-22T23:22:55.527Z,69.66
2022-10-22T23:27:57.307Z,69.49
2022-10-22T23:32:59.067Z,69.53
2022-10-22T23:38:00.865Z,70.06
2022-10-22T23:43:03.410Z,69.63
2022-10-22T23:48:06.207Z,69.51
2022-10-22T23:53:08.828Z,69.58
2022-10-22T23:58:11.749Z,69.75
